Time;durP1;ratioP1;P1;durP2;ratioP2;P2;SDS_P1;SDS_P2;PMS_P1;PMS_P2;Temp;Humidity;BMP_temperature;BMP_pressure;BME280_temperature;BME280_humidity;BME280_pressure;Samples;Min_cycle;Max_cycle;Signal;HPM_P1;HPM_P2
2021/05/07 00:01:00;;;;;;;1.20;1.17;;;;;;;;;;5050008;28;20087;-81
2021/05/07 00:03:26;;;;;;;1.20;1.10;;;;;;;;;;5049820;28;20029;-81
2021/05/07 00:05:56;;;;;;;1.13;1.00;;;;;;;;;;5050436;28;20069;-81
2021/05/07 00:08:22;;;;;;;0.82;0.82;;;;;;;;;;5049773;28;20033;-81
2021/05/07 00:10:48;;;;;;;1.85;1.38;;;;;;;;;;5051153;28;20044;-81
2021/05/07 00:13:14;;;;;;;0.90;0.90;;;;;;;;;;5053670;28;20038;-81
2021/05/07 00:15:40;;;;;;;1.35;1.25;;;;;;;;;;5053873;28;20028;-81
2021/05/07 00:18:06;;;;;;;1.33;1.08;;;;;;;;;;5053685;28;20021;-81
2021/05/07 00:20:32;;;;;;;2.25;1.95;;;;;;;;;;5054088;28;20039;-81
2021/05/07 00:22:59;;;;;;;0.82;0.80;;;;;;;;;;5053909;28;20044;-81
2021/05/07 00:25:25;;;;;;;1.20;1.05;;;;;;;;;;5053526;28;20068;-81
2021/05/07 00:27:58;;;;;;;1.30;1.20;;;;;;;;;;5053491;28;20060;-81
2021/05/07 00:30:24;;;;;;;2.22;1.67;;;;;;;;;;5053293;28;20025;-81
2021/05/07 00:32:50;;;;;;;2.05;1.40;;;;;;;;;;5052818;28;20492;-81
2021/05/07 00:35:16;;;;;;;1.50;1.02;;;;;;;;;;5053173;28;20017;-81
2021/05/07 00:37:42;;;;;;;0.90;0.90;;;;;;;;;;5053132;28;20100;-81
2021/05/07 00:40:08;;;;;;;1.20;1.20;;;;;;;;;;5053317;28;20064;-81
2021/05/07 00:42:34;;;;;;;1.20;1.10;;;;;;;;;;5035644;28;20406;-81
2021/05/07 00:45:01;;;;;;;1.48;1.27;;;;;;;;;;5053341;28;20029;-81
2021/05/07 00:47:27;;;;;;;1.42;1.33;;;;;;;;;;5053195;28;20040;-81
2021/05/07 00:49:54;;;;;;;1.38;1.27;;;;;;;;;;5053376;28;20021;-81
2021/05/07 00:52:20;;;;;;;1.50;1.40;;;;;;;;;;5053122;28;20598;-81
2021/05/07 00:54:46;;;;;;;1.80;1.45;;;;;;;;;;5053085;28;20033;-81
2021/05/07 00:57:13;;;;;;;1.08;1.00;;;;;;;;;;5052180;28;20041;-81
2021/05/07 00:59:39;;;;;;;1.00;0.90;;;;;;;;;;5053436;28;20037;-81
2021/05/07 01:02:05;;;;;;;1.17;1.02;;;;;;;;;;5053016;28;20117;-81
2021/05/07 01:04:31;;;;;;;1.55;1.45;;;;;;;;;;5051697;28;20036;-81
2021/05/07 01:06:58;;;;;;;2.20;1.58;;;;;;;;;;5052600;28;20041;-81
2021/05/07 01:09:24;;;;;;;3.03;1.42;;;;;;;;;;5052520;28;20055;-81
2021/05/07 01:11:50;;;;;;;1.00;1.00;;;;;;;;;;5053032;28;20036;-81
2021/05/07 01:14:16;;;;;;;1.60;1.50;;;;;;;;;;5051512;28;20388;-81
2021/05/07 01:16:42;;;;;;;1.25;0.77;;;;;;;;;;5051643;28;20021;-81
2021/05/07 01:19:13;;;;;;;1.15;1.00;;;;;;;;;;5052467;28;20029;-81
2021/05/07 01:21:39;;;;;;;1.63;1.27;;;;;;;;;;5052574;28;20017;-81
2021/05/07 01:24:06;;;;;;;1.25;1.00;;;;;;;;;;5051536;28;20036;-81
2021/05/07 01:26:34;;;;;;;1.55;1.45;;;;;;;;;;5051546;28;20037;-81
2021/05/07 01:29:00;;;;;;;1.40;1.30;;;;;;;;;;5052707;28;20057;-81
2021/05/07 01:31:26;;;;;;;1.00;0.80;;;;;;;;;;5052279;28;20040;-81
2021/05/07 01:33:52;;;;;;;1.83;1.13;;;;;;;;;;5051688;28;20054;-81
2021/05/07 01:36:18;;;;;;;1.42;1.15;;;;;;;;;;5051099;28;20037;-81
2021/05/07 01:38:44;;;;;;;1.60;1.45;;;;;;;;;;5051513;28;20479;-81
2021/05/07 01:41:10;;;;;;;1.17;0.98;;;;;;;;;;5051950;28;20027;-81
2021/05/07 01:43:36;;;;;;;1.33;1.10;;;;;;;;;;5052045;28;20051;-81
2021/05/07 01:46:02;;;;;;;1.27;1.17;;;;;;;;;;5051546;28;20488;-81
2021/05/07 01:48:28;;;;;;;1.23;1.15;;;;;;;;;;5051069;28;20029;-81
2021/05/07 01:50:54;;;;;;;0.90;0.85;;;;;;;;;;5051541;28;20037;-81
2021/05/07 01:53:20;;;;;;;1.33;1.23;;;;;;;;;;5051942;28;20033;-81
2021/05/07 01:55:48;;;;;;;1.77;1.23;;;;;;;;;;5051979;28;20131;-81
2021/05/07 01:58:16;;;;;;;0.95;0.93;;;;;;;;;;5050734;28;20051;-81
2021/05/07 02:00:43;;;;;;;1.25;1.15;;;;;;;;;;5051437;28;20017;-81
2021/05/07 02:03:10;;;;;;;1.15;1.05;;;;;;;;;;5051281;28;20415;-81
2021/05/07 02:05:36;;;;;;;1.67;1.45;;;;;;;;;;5050472;28;20407;-81
2021/05/07 02:08:06;;;;;;;3.05;1.48;;;;;;;;;;5049937;28;20097;-81
2021/05/07 02:10:33;;;;;;;1.15;1.10;;;;;;;;;;5051929;28;20032;-81
2021/05/07 02:13:00;;;;;;;1.45;1.20;;;;;;;;;;5051907;28;20526;-81
2021/05/07 02:15:27;;;;;;;1.13;1.08;;;;;;;;;;5051342;28;20526;-81
2021/05/07 02:17:53;;;;;;;1.33;1.20;;;;;;;;;;5050339;28;20573;-81
2021/05/07 02:20:20;;;;;;;1.30;1.20;;;;;;;;;;5050838;28;20377;-81
2021/05/07 02:22:47;;;;;;;0.90;0.90;;;;;;;;;;5051706;28;20025;-81
2021/05/07 02:25:14;;;;;;;1.48;1.25;;;;;;;;;;5051114;28;20021;-80
2021/05/07 02:27:40;;;;;;;1.40;0.90;;;;;;;;;;5050419;28;20017;-81
2021/05/07 02:30:07;;;;;;;2.28;1.20;;;;;;;;;;5033096;28;20441;-81
2021/05/07 02:32:33;;;;;;;3.35;1.33;;;;;;;;;;5051028;28;20472;-81
2021/05/07 02:34:59;;;;;;;1.13;0.90;;;;;;;;;;5050642;28;20036;-81
2021/05/07 02:37:25;;;;;;;0.68;0.68;;;;;;;;;;5050065;28;20106;-81
2021/05/07 02:39:52;;;;;;;2.17;1.20;;;;;;;;;;5051505;28;20426;-81
2021/05/07 02:42:18;;;;;;;1.40;1.30;;;;;;;;;;5050425;28;20025;-81
2021/05/07 02:44:44;;;;;;;0.88;0.88;;;;;;;;;;5051313;28;20078;-81
2021/05/07 02:47:10;;;;;;;0.70;0.70;;;;;;;;;;5050751;28;20029;-81
2021/05/07 02:49:36;;;;;;;0.70;0.70;;;;;;;;;;5049934;28;20021;-81
2021/05/07 02:52:03;;;;;;;2.10;1.42;;;;;;;;;;5051195;28;20029;-81
2021/05/07 02:54:29;;;;;;;1.17;1.00;;;;;;;;;;5049807;28;20025;-81
2021/05/07 02:56:56;;;;;;;1.55;1.27;;;;;;;;;;5050692;28;20060;-81
2021/05/07 02:59:23;;;;;;;3.85;1.08;;;;;;;;;;5049773;28;20025;-81
2021/05/07 03:01:50;;;;;;;1.75;0.75;;;;;;;;;;5051330;28;20045;-81
2021/05/07 03:04:18;;;;;;;1.02;0.90;;;;;;;;;;5050616;28;20107;-81
2021/05/07 03:06:44;;;;;;;4.78;1.75;;;;;;;;;;5050721;28;20048;-81
2021/05/07 03:09:10;;;;;;;1.95;1.30;;;;;;;;;;5049495;28;20071;-81
2021/05/07 03:11:36;;;;;;;1.15;1.05;;;;;;;;;;5050523;28;20075;-81
2021/05/07 03:14:02;;;;;;;1.08;1.02;;;;;;;;;;5049398;28;20112;-81
2021/05/07 03:16:28;;;;;;;1.35;1.25;;;;;;;;;;5050607;28;20029;-81
2021/05/07 03:18:54;;;;;;;3.38;1.00;;;;;;;;;;5050662;28;20033;-81
2021/05/07 03:21:21;;;;;;;1.33;1.00;;;;;;;;;;5050084;28;20025;-81
2021/05/07 03:23:47;;;;;;;3.67;1.00;;;;;;;;;;5050994;28;20415;-81
2021/05/07 03:26:13;;;;;;;1.33;0.85;;;;;;;;;;5049641;28;20029;-81
2021/05/07 03:28:40;;;;;;;1.10;1.02;;;;;;;;;;5050898;28;20383;-81
2021/05/07 03:31:06;;;;;;;0.95;0.95;;;;;;;;;;5049987;28;20110;-80
2021/05/07 03:33:33;;;;;;;1.00;0.98;;;;;;;;;;5050422;28;20044;-81
2021/05/07 03:35:59;;;;;;;2.03;1.45;;;;;;;;;;5050130;28;20120;-81
2021/05/07 03:38:25;;;;;;;1.20;0.93;;;;;;;;;;5049933;28;20029;-81
2021/05/07 03:40:51;;;;;;;1.02;0.93;;;;;;;;;;5050261;28;20044;-81
2021/05/07 03:43:17;;;;;;;1.52;0.95;;;;;;;;;;5050478;28;20029;-81
2021/05/07 03:45:44;;;;;;;1.20;1.00;;;;;;;;;;5052290;28;20045;-81
2021/05/07 03:48:13;;;;;;;1.05;0.98;;;;;;;;;;5053273;28;20017;-81
2021/05/07 03:50:39;;;;;;;1.17;1.10;;;;;;;;;;5053870;28;20100;-81
2021/05/07 03:53:05;;;;;;;1.42;1.30;;;;;;;;;;5054446;28;20430;-81
2021/05/07 03:55:31;;;;;;;1.30;1.20;;;;;;;;;;5053918;28;20033;-81
2021/05/07 03:58:00;;;;;;;1.27;1.15;;;;;;;;;;5053790;28;20049;-81
2021/05/07 04:00:26;;;;;;;1.50;1.40;;;;;;;;;;5054255;28;20025;-81
2021/05/07 04:02:52;;;;;;;1.35;1.25;;;;;;;;;;5053163;28;20021;-81
2021/05/07 04:05:18;;;;;;;0.70;0.70;;;;;;;;;;5052917;28;20523;-81
2021/05/07 04:07:46;;;;;;;0.90;0.63;;;;;;;;;;5053815;28;20023;-81
2021/05/07 04:10:21;;;;;;;1.10;1.05;;;;;;;;;;5053933;28;20476;-80
2021/05/07 04:15:14;;;;;;;1.02;0.93;;;;;;;;;;5052870;28;20033;-81
2021/05/07 04:17:40;;;;;;;0.90;0.85;;;;;;;;;;5053871;28;20049;-82
2021/05/07 04:20:07;;;;;;;1.52;1.30;;;;;;;;;;5053996;28;20039;-81
2021/05/07 04:22:33;;;;;;;2.45;1.02;;;;;;;;;;5053011;28;20051;-81
2021/05/07 04:24:59;;;;;;;1.35;1.00;;;;;;;;;;5053660;28;20450;-81
2021/05/07 04:27:25;;;;;;;1.23;0.95;;;;;;;;;;5052202;28;20037;-81
2021/05/07 04:29:52;;;;;;;2.53;0.90;;;;;;;;;;5053974;28;20475;-82
2021/05/07 04:32:19;;;;;;;1.42;1.33;;;;;;;;;;5053654;28;20082;-81
2021/05/07 04:34:45;;;;;;;1.13;1.05;;;;;;;;;;5052534;28;20151;-81
2021/05/07 04:37:11;;;;;;;1.27;1.00;;;;;;;;;;5052270;28;20017;-81
2021/05/07 04:39:37;;;;;;;1.17;1.08;;;;;;;;;;5053568;28;20025;-81
2021/05/07 04:42:03;;;;;;;0.82;0.73;;;;;;;;;;5053742;28;20187;-81
2021/05/07 04:44:29;;;;;;;1.23;0.90;;;;;;;;;;5052112;28;20032;-80
2021/05/07 04:46:59;;;;;;;0.95;0.93;;;;;;;;;;5052625;28;20033;-80
2021/05/07 04:49:25;;;;;;;0.68;0.68;;;;;;;;;;5053078;28;20040;-81
2021/05/07 04:51:51;;;;;;;1.20;1.08;;;;;;;;;;5052233;28;20426;-80
2021/05/07 04:54:17;;;;;;;0.60;0.60;;;;;;;;;;5052897;28;20049;-80
2021/05/07 04:56:43;;;;;;;1.42;1.05;;;;;;;;;;5051017;28;20019;-80
2021/05/07 04:59:09;;;;;;;1.95;1.50;;;;;;;;;;5053277;28;20501;-80
2021/05/07 05:01:35;;;;;;;2.13;1.00;;;;;;;;;;5052462;28;20017;-81
2021/05/07 05:04:02;;;;;;;0.93;0.93;;;;;;;;;;5052680;28;20082;-81
2021/05/07 05:06:28;;;;;;;1.52;1.10;;;;;;;;;;5051069;28;20044;-80
2021/05/07 05:08:54;;;;;;;2.15;1.00;;;;;;;;;;5053045;28;20029;-80
2021/05/07 05:11:20;;;;;;;1.55;0.73;;;;;;;;;;5051401;28;20025;-80
2021/05/07 05:13:46;;;;;;;1.08;0.98;;;;;;;;;;5052977;28;20056;-80
2021/05/07 05:16:12;;;;;;;0.85;0.85;;;;;;;;;;5051817;28;20047;-81
2021/05/07 05:18:39;;;;;;;1.23;1.13;;;;;;;;;;5053048;28;20389;-80
2021/05/07 05:21:06;;;;;;;0.68;0.65;;;;;;;;;;5051335;28;20021;-80
2021/05/07 05:23:32;;;;;;;0.73;0.73;;;;;;;;;;5052711;28;20047;-80
2021/05/07 05:25:59;;;;;;;1.33;1.23;;;;;;;;;;5052413;28;20047;-81
2021/05/07 05:28:26;;;;;;;0.77;0.77;;;;;;;;;;5050420;28;20562;-80
2021/05/07 05:30:52;;;;;;;0.80;0.80;;;;;;;;;;5034813;28;20444;-81
2021/05/07 05:33:18;;;;;;;0.90;0.88;;;;;;;;;;5051893;28;20033;-80
2021/05/07 05:35:45;;;;;;;0.95;0.88;;;;;;;;;;5052275;28;20028;-81
2021/05/07 05:38:12;;;;;;;0.90;0.85;;;;;;;;;;5051096;28;20021;-80
2021/05/07 05:40:39;;;;;;;0.80;0.80;;;;;;;;;;5051886;28;20025;-81
2021/05/07 05:43:05;;;;;;;1.35;1.25;;;;;;;;;;5052111;28;20567;-79
2021/05/07 05:45:31;;;;;;;1.13;0.93;;;;;;;;;;5052087;28;20517;-83
2021/05/07 05:48:17;;;;;;;0.98;0.80;;;;;;;;;;5051133;28;20025;-84
2021/05/07 05:50:45;;;;;;;2.35;0.88;;;;;;;;;;5051974;28;20025;-83
2021/05/07 05:53:11;;;;;;;1.00;0.93;;;;;;;;;;5050830;28;20060;-82
2021/05/07 05:55:38;;;;;;;3.17;1.80;;;;;;;;;;5047638;28;20472;-83
2021/05/07 05:58:04;;;;;;;2.40;1.70;;;;;;;;;;5048408;28;20531;-83
2021/05/07 06:00:31;;;;;;;2.60;1.83;;;;;;;;;;5050135;28;20017;-83
2021/05/07 06:02:57;;;;;;;5.05;1.42;;;;;;;;;;5049260;28;20068;-83
2021/05/07 06:05:23;;;;;;;3.58;1.77;;;;;;;;;;5048558;28;20021;-83
2021/05/07 06:07:49;;;;;;;1.50;1.35;;;;;;;;;;5047752;28;20021;-83
2021/05/07 06:10:16;;;;;;;2.25;1.52;;;;;;;;;;5046126;28;20441;-83
2021/05/07 06:12:43;;;;;;;3.05;1.17;;;;;;;;;;5048668;28;20049;-83
2021/05/07 06:15:09;;;;;;;1.30;1.20;;;;;;;;;;5048716;28;20085;-83
2021/05/07 06:17:35;;;;;;;1.20;1.02;;;;;;;;;;5049470;28;20029;-83
2021/05/07 06:20:04;;;;;;;2.58;1.45;;;;;;;;;;5049877;28;20028;-83
2021/05/07 06:22:30;;;;;;;3.25;1.33;;;;;;;;;;5049859;28;20039;-84
2021/05/07 06:24:56;;;;;;;0.90;0.90;;;;;;;;;;5047285;28;20027;-84
2021/05/07 06:27:22;;;;;;;1.77;1.52;;;;;;;;;;5048104;28;20039;-83
2021/05/07 06:29:48;;;;;;;3.35;1.77;;;;;;;;;;5025658;28;20083;-86
2021/05/07 06:32:14;;;;;;;1.85;1.10;;;;;;;;;;5042184;28;20044;-83
2021/05/07 06:34:40;;;;;;;3.03;2.03;;;;;;;;;;5053830;28;20509;-82
2021/05/07 06:37:06;;;;;;;2.63;1.95;;;;;;;;;;5047668;28;20028;-83
2021/05/07 06:39:33;;;;;;;3.63;1.40;;;;;;;;;;5043293;28;20099;-83
2021/05/07 06:41:59;;;;;;;2.97;2.20;;;;;;;;;;5047900;28;20025;-83
2021/05/07 06:44:25;;;;;;;2.50;1.65;;;;;;;;;;5046258;28;20556;-81
2021/05/07 06:46:52;;;;;;;3.03;1.88;;;;;;;;;;5041308;28;20033;-81
2021/05/07 06:49:18;;;;;;;3.58;1.40;;;;;;;;;;5048274;28;20107;-79
2021/05/07 06:51:45;;;;;;;2.95;1.48;;;;;;;;;;5041906;28;20029;-80
2021/05/07 06:54:11;;;;;;;2.80;1.63;;;;;;;;;;5049359;28;20028;-80
2021/05/07 06:56:37;;;;;;;3.35;1.55;;;;;;;;;;5048891;28;20021;-80
2021/05/07 06:59:03;;;;;;;3.88;2.15;;;;;;;;;;5050117;28;20487;-80
2021/05/07 07:01:30;;;;;;;3.47;2.05;;;;;;;;;;5049288;28;20036;-81
2021/05/07 07:03:56;;;;;;;1.20;1.10;;;;;;;;;;5048981;28;20060;-82
2021/05/07 07:06:22;;;;;;;2.78;1.65;;;;;;;;;;5047917;28;20033;-80
2021/05/07 07:08:48;;;;;;;1.88;1.70;;;;;;;;;;5048539;28;20037;-81
2021/05/07 07:11:14;;;;;;;1.63;1.52;;;;;;;;;;5049549;28;20026;-79
2021/05/07 07:13:40;;;;;;;2.88;1.50;;;;;;;;;;5047854;28;20048;-82
2021/05/07 07:16:06;;;;;;;2.10;1.77;;;;;;;;;;5029226;28;20033;-79
2021/05/07 07:18:33;;;;;;;1.52;1.40;;;;;;;;;;5047150;28;20525;-79
2021/05/07 07:20:59;;;;;;;1.33;1.23;;;;;;;;;;5050831;28;20028;-80
2021/05/07 07:23:25;;;;;;;1.52;1.30;;;;;;;;;;5050802;28;20547;-83
2021/05/07 07:25:51;;;;;;;1.35;1.13;;;;;;;;;;5048795;28;20399;-80
2021/05/07 07:28:18;;;;;;;3.00;1.30;;;;;;;;;;5052290;28;20029;-80
2021/05/07 07:30:45;;;;;;;2.28;1.13;;;;;;;;;;5053010;28;20670;-81
2021/05/07 07:33:11;;;;;;;4.85;1.60;;;;;;;;;;5052482;28;20551;-80
2021/05/07 07:35:37;;;;;;;4.35;1.00;;;;;;;;;;5052763;28;20140;-81
2021/05/07 07:38:03;;;;;;;5.13;1.27;;;;;;;;;;5053057;28;20029;-81
2021/05/07 07:40:30;;;;;;;1.75;1.05;;;;;;;;;;5052023;28;20064;-80
2021/05/07 07:42:56;;;;;;;1.25;1.15;;;;;;;;;;5053058;28;20111;-80
2021/05/07 07:45:22;;;;;;;3.85;1.92;;;;;;;;;;5051502;28;20033;-81
2021/05/07 07:47:48;;;;;;;3.17;2.08;;;;;;;;;;5052491;28;20549;-82
2021/05/07 07:50:14;;;;;;;3.17;1.88;;;;;;;;;;5052257;28;20025;-81
2021/05/07 07:52:40;;;;;;;3.25;1.50;;;;;;;;;;5053158;28;20029;-82
2021/05/07 07:55:08;;;;;;;3.95;1.73;;;;;;;;;;5051489;28;20496;-81
2021/05/07 07:57:34;;;;;;;4.18;1.65;;;;;;;;;;5051089;28;20095;-81
2021/05/07 08:00:00;;;;;;;6.78;1.48;;;;;;;;;;5051958;28;20039;-84
2021/05/07 08:02:26;;;;;;;5.00;1.60;;;;;;;;;;5050224;28;20040;-81
2021/05/07 08:04:53;;;;;;;1.85;1.38;;;;;;;;;;5051539;28;20135;-80
2021/05/07 08:07:19;;;;;;;2.85;1.48;;;;;;;;;;5050285;28;20033;-80
2021/05/07 08:09:45;;;;;;;3.25;1.35;;;;;;;;;;5050904;28;20032;-80
2021/05/07 08:12:12;;;;;;;3.05;1.67;;;;;;;;;;5051349;28;20029;-82
2021/05/07 08:14:38;;;;;;;3.47;1.38;;;;;;;;;;5052399;28;20048;-81
2021/05/07 08:17:04;;;;;;;4.47;1.10;;;;;;;;;;5051574;28;20024;-79
2021/05/07 08:19:30;;;;;;;3.03;2.00;;;;;;;;;;5051672;28;20418;-81
2021/05/07 08:21:56;;;;;;;1.15;1.05;;;;;;;;;;5051643;28;20029;-82
2021/05/07 08:24:25;;;;;;;1.30;1.00;;;;;;;;;;5051014;28;20067;-80
2021/05/07 08:26:52;;;;;;;2.38;1.20;;;;;;;;;;5051073;28;20037;-80
2021/05/07 08:29:18;;;;;;;5.47;1.42;;;;;;;;;;5050926;28;20053;-80
2021/05/07 08:31:45;;;;;;;3.58;1.27;;;;;;;;;;5051148;28;20024;-81
2021/05/07 08:34:11;;;;;;;3.85;1.58;;;;;;;;;;5051087;28;20151;-80
2021/05/07 08:36:37;;;;;;;1.95;0.93;;;;;;;;;;5034414;28;20036;-80
2021/05/07 08:39:03;;;;;;;2.50;1.13;;;;;;;;;;5034120;28;20425;-81
2021/05/07 08:41:30;;;;;;;2.72;1.65;;;;;;;;;;5051441;28;20107;-80
2021/05/07 08:43:56;;;;;;;3.47;1.73;;;;;;;;;;5051993;28;20492;-80
2021/05/07 08:46:22;;;;;;;4.05;1.52;;;;;;;;;;5050480;28;20115;-82
2021/05/07 08:48:49;;;;;;;0.77;0.77;;;;;;;;;;5051489;28;20048;-81
2021/05/07 08:51:15;;;;;;;3.22;1.08;;;;;;;;;;5050976;28;20033;-81
2021/05/07 08:53:42;;;;;;;2.45;1.15;;;;;;;;;;5051856;28;20029;-81
2021/05/07 08:56:08;;;;;;;2.65;1.35;;;;;;;;;;5050073;28;20068;-79
2021/05/07 08:58:35;;;;;;;1.02;0.90;;;;;;;;;;5050253;28;20041;-80
2021/05/07 09:01:01;;;;;;;3.42;1.88;;;;;;;;;;5051362;28;20082;-81
2021/05/07 09:03:37;;;;;;;0.82;0.82;;;;;;;;;;5050384;28;20037;-80
2021/05/07 09:06:13;;;;;;;1.50;1.33;;;;;;;;;;5051604;28;20036;-80
2021/05/07 09:08:39;;;;;;;3.00;1.30;;;;;;;;;;5051887;28;20053;-81
2021/05/07 09:11:05;;;;;;;1.40;1.30;;;;;;;;;;5049455;28;20044;-79
2021/05/07 09:13:32;;;;;;;1.42;1.02;;;;;;;;;;5050738;28;20029;-80
2021/05/07 09:16:04;;;;;;;1.15;0.95;;;;;;;;;;5044567;28;20376;-79
2021/05/07 09:18:40;;;;;;;1.08;0.75;;;;;;;;;;5050510;28;20025;-82
2021/05/07 09:21:06;;;;;;;1.08;0.85;;;;;;;;;;5051242;28;20379;-80
2021/05/07 09:23:38;;;;;;;1.67;0.90;;;;;;;;;;5050905;28;20028;-81
2021/05/07 09:26:04;;;;;;;1.27;0.82;;;;;;;;;;5067349;28;20036;-80
2021/05/07 09:28:30;;;;;;;2.25;1.17;;;;;;;;;;5070031;28;20048;-83
2021/05/07 09:31:09;;;;;;;2.20;0.75;;;;;;;;;;5071452;28;20060;-81
2021/05/07 09:33:40;;;;;;;1.25;1.13;;;;;;;;;;5063180;28;20049;-84
2021/05/07 09:36:06;;;;;;;2.25;1.17;;;;;;;;;;5043425;28;20025;-80
2021/05/07 09:38:33;;;;;;;1.80;0.98;;;;;;;;;;5046010;28;20025;-81
2021/05/07 09:40:59;;;;;;;0.80;0.80;;;;;;;;;;5050637;28;20451;-80
2021/05/07 09:43:29;;;;;;;1.92;1.02;;;;;;;;;;5049932;28;20556;-80
2021/05/07 09:45:55;;;;;;;3.60;1.13;;;;;;;;;;5050386;28;20037;-80
2021/05/07 09:48:23;;;;;;;1.25;1.00;;;;;;;;;;5049368;28;20060;-80
2021/05/07 09:50:50;;;;;;;2.20;0.82;;;;;;;;;;5032446;28;20410;-80
2021/05/07 09:53:20;;;;;;;0.80;0.77;;;;;;;;;;5049457;28;20063;-80
2021/05/07 09:55:47;;;;;;;3.13;0.80;;;;;;;;;;5050422;28;20021;-81
2021/05/07 09:58:14;;;;;;;2.33;0.90;;;;;;;;;;5049011;28;20053;-79
2021/05/07 10:00:40;;;;;;;2.58;1.10;;;;;;;;;;5050294;28;20411;-80
2021/05/07 10:03:07;;;;;;;1.83;0.70;;;;;;;;;;5046952;28;20069;-80
2021/05/07 10:05:36;;;;;;;2.10;0.93;;;;;;;;;;5048687;28;20044;-80
2021/05/07 10:08:03;;;;;;;2.08;1.10;;;;;;;;;;5049593;28;20031;-80
2021/05/07 10:10:38;;;;;;;1.90;1.58;;;;;;;;;;5046116;28;20163;-81
2021/05/07 10:13:06;;;;;;;1.40;1.08;;;;;;;;;;5051850;28;20025;-80
2021/05/07 10:15:37;;;;;;;4.63;1.13;;;;;;;;;;5049677;28;20122;-80
2021/05/07 10:18:04;;;;;;;1.50;0.80;;;;;;;;;;5036121;28;20405;-80
2021/05/07 10:20:35;;;;;;;1.88;1.10;;;;;;;;;;5049312;28;20068;-80
2021/05/07 10:23:12;;;;;;;1.60;1.13;;;;;;;;;;5049533;28;20573;-80
2021/05/07 10:25:39;;;;;;;1.85;1.10;;;;;;;;;;5047118;28;20032;-80
2021/05/07 10:28:14;;;;;;;1.27;1.17;;;;;;;;;;5049789;28;20029;-80
2021/05/07 10:30:40;;;;;;;0.75;0.75;;;;;;;;;;5032127;28;20029;-80
2021/05/07 10:33:19;;;;;;;1.52;1.00;;;;;;;;;;5049775;28;20025;-79
2021/05/07 10:35:54;;;;;;;2.92;1.42;;;;;;;;;;5049896;28;20028;-79
2021/05/07 10:38:20;;;;;;;1.55;0.90;;;;;;;;;;5049654;28;20108;-79
2021/05/07 10:40:49;;;;;;;3.00;0.93;;;;;;;;;;5049974;28;20032;-82
2021/05/07 10:43:16;;;;;;;3.65;1.52;;;;;;;;;;5050029;28;20490;-79
2021/05/07 10:45:42;;;;;;;1.25;1.15;;;;;;;;;;5050110;28;20044;-80
2021/05/07 10:48:17;;;;;;;3.42;1.05;;;;;;;;;;5050248;28;20033;-79
2021/05/07 10:50:44;;;;;;;2.25;0.90;;;;;;;;;;5050220;28;20146;-79
2021/05/07 10:53:10;;;;;;;1.10;1.08;;;;;;;;;;5049783;28;20033;-79
2021/05/07 10:55:36;;;;;;;3.85;1.17;;;;;;;;;;5047808;28;20021;-80
2021/05/07 10:58:04;;;;;;;1.60;1.13;;;;;;;;;;5050220;28;20053;-80
2021/05/07 11:00:34;;;;;;;7.18;1.38;;;;;;;;;;5049968;28;20032;-80
2021/05/07 11:03:01;;;;;;;1.30;1.15;;;;;;;;;;5050557;28;20032;-80
2021/05/07 11:05:42;;;;;;;1.65;1.33;;;;;;;;;;5049107;28;20037;-79
2021/05/07 11:08:08;;;;;;;1.52;1.33;;;;;;;;;;5049642;28;20406;-79
2021/05/07 11:10:34;;;;;;;2.58;1.30;;;;;;;;;;5050532;28;20029;-80
2021/05/07 11:13:00;;;;;;;2.33;1.58;;;;;;;;;;5050396;28;20022;-79
2021/05/07 11:15:26;;;;;;;1.83;1.15;;;;;;;;;;5049141;28;20517;-79
2021/05/07 11:17:59;;;;;;;1.83;1.10;;;;;;;;;;5050197;28;20534;-79
2021/05/07 11:20:33;;;;;;;3.05;0.90;;;;;;;;;;5049421;28;20029;-80
2021/05/07 11:23:03;;;;;;;1.27;1.17;;;;;;;;;;5050081;28;20037;-80
2021/05/07 11:25:30;;;;;;;1.50;1.40;;;;;;;;;;5052367;28;20447;-79
2021/05/07 11:27:59;;;;;;;1.38;0.82;;;;;;;;;;5048975;28;20032;-79
2021/05/07 11:30:25;;;;;;;1.48;1.15;;;;;;;;;;5048862;28;20025;-80
2021/05/07 11:32:51;;;;;;;1.40;1.30;;;;;;;;;;5048587;28;20041;-80
2021/05/07 11:35:18;;;;;;;3.10;0.90;;;;;;;;;;5047996;28;20511;-82
2021/05/07 11:37:45;;;;;;;2.33;1.60;;;;;;;;;;5046437;28;20108;-81
2021/05/07 11:40:12;;;;;;;2.97;1.45;;;;;;;;;;5049136;28;20021;-79
2021/05/07 11:42:40;;;;;;;1.15;1.02;;;;;;;;;;5040993;28;20124;-81
2021/05/07 11:45:07;;;;;;;4.60;0.88;;;;;;;;;;5047025;28;20043;-82
2021/05/07 11:47:34;;;;;;;0.65;0.60;;;;;;;;;;5048191;28;20436;-80
2021/05/07 11:50:01;;;;;;;2.78;1.20;;;;;;;;;;5042858;28;20021;-81
2021/05/07 11:52:36;;;;;;;5.38;1.42;;;;;;;;;;5048390;28;20479;-81
2021/05/07 11:55:03;;;;;;;3.55;1.40;;;;;;;;;;5049239;28;20029;-80
2021/05/07 11:57:31;;;;;;;1.83;1.15;;;;;;;;;;5048476;28;20057;-80
2021/05/07 11:59:58;;;;;;;1.45;1.00;;;;;;;;;;5049592;28;20075;-80
2021/05/07 12:02:25;;;;;;;1.38;1.27;;;;;;;;;;5048428;28;20025;-81
2021/05/07 12:04:52;;;;;;;1.25;1.15;;;;;;;;;;5047935;28;20025;-80
2021/05/07 12:07:24;;;;;;;1.65;0.98;;;;;;;;;;5048457;28;20045;-80
2021/05/07 12:09:51;;;;;;;0.77;0.77;;;;;;;;;;5047483;28;20028;-80
2021/05/07 12:12:17;;;;;;;1.55;1.38;;;;;;;;;;5049418;28;20033;-82
2021/05/07 12:14:51;;;;;;;4.40;1.45;;;;;;;;;;5053049;28;20523;-78
2021/05/07 12:17:24;;;;;;;1.63;1.10;;;;;;;;;;5051929;28;20025;-78
2021/05/07 12:20:02;;;;;;;6.28;1.23;;;;;;;;;;5053664;28;20029;-79
2021/05/07 12:22:29;;;;;;;2.40;1.10;;;;;;;;;;5051384;28;20040;-79
2021/05/07 12:25:06;;;;;;;1.30;1.17;;;;;;;;;;5053559;28;20085;-77
2021/05/07 12:27:32;;;;;;;1.55;1.27;;;;;;;;;;5051695;28;20708;-78
2021/05/07 12:29:58;;;;;;;0.95;0.90;;;;;;;;;;5052287;28;20521;-77
2021/05/07 12:32:25;;;;;;;3.70;1.20;;;;;;;;;;5051374;28;20029;-77
2021/05/07 12:34:55;;;;;;;1.40;1.20;;;;;;;;;;5051379;28;20029;-76
2021/05/07 12:37:21;;;;;;;1.67;1.35;;;;;;;;;;5050065;28;20032;-77
2021/05/07 12:39:47;;;;;;;1.50;1.40;;;;;;;;;;5051863;28;20057;-77
2021/05/07 12:42:14;;;;;;;1.23;1.10;;;;;;;;;;5051143;28;20017;-78
2021/05/07 12:44:40;;;;;;;3.35;1.95;;;;;;;;;;5051691;28;20029;-77
2021/05/07 12:47:06;;;;;;;1.40;1.00;;;;;;;;;;5051175;28;20095;-77
2021/05/07 12:49:32;;;;;;;1.27;0.90;;;;;;;;;;5051756;28;20028;-78
2021/05/07 12:51:59;;;;;;;1.42;1.23;;;;;;;;;;5052888;28;20044;-77
2021/05/07 12:54:25;;;;;;;2.88;1.20;;;;;;;;;;5051254;28;20029;-78
2021/05/07 12:56:52;;;;;;;0.90;0.90;;;;;;;;;;5050768;28;20036;-77
2021/05/07 12:59:18;;;;;;;1.33;1.23;;;;;;;;;;5050098;28;20036;-77
2021/05/07 13:01:47;;;;;;;1.20;0.95;;;;;;;;;;5034175;28;20032;-77
2021/05/07 13:04:13;;;;;;;1.35;1.00;;;;;;;;;;5050979;28;20021;-76
2021/05/07 13:06:39;;;;;;;1.58;1.48;;;;;;;;;;5051338;28;20044;-77
2021/05/07 13:09:05;;;;;;;1.58;1.13;;;;;;;;;;5052023;28;20375;-77
2021/05/07 13:11:32;;;;;;;1.15;1.15;;;;;;;;;;5051859;28;20024;-76
2021/05/07 13:13:58;;;;;;;2.72;1.13;;;;;;;;;;5052049;28;20070;-77
2021/05/07 13:16:24;;;;;;;3.15;2.40;;;;;;;;;;5051254;28;20462;-77
2021/05/07 13:18:50;;;;;;;3.92;1.73;;;;;;;;;;5049978;28;20079;-77
2021/05/07 13:21:16;;;;;;;1.95;1.42;;;;;;;;;;5051267;28;20391;-77
2021/05/07 13:23:42;;;;;;;1.50;1.15;;;;;;;;;;5043844;28;20086;-77
2021/05/07 13:26:08;;;;;;;3.55;1.45;;;;;;;;;;5044020;28;20045;-77
2021/05/07 13:28:34;;;;;;;2.10;1.25;;;;;;;;;;5050346;28;20029;-77
2021/05/07 13:31:01;;;;;;;1.60;1.00;;;;;;;;;;5051837;28;20029;-78
2021/05/07 13:33:29;;;;;;;2.53;1.20;;;;;;;;;;5050509;28;20039;-77
2021/05/07 13:35:56;;;;;;;1.58;1.48;;;;;;;;;;5051472;28;20028;-78
2021/05/07 13:38:22;;;;;;;1.20;1.10;;;;;;;;;;5050580;28;20544;-77
2021/05/07 13:40:50;;;;;;;1.17;1.05;;;;;;;;;;5051140;28;20480;-78
2021/05/07 13:43:16;;;;;;;2.42;1.30;;;;;;;;;;5050339;28;20041;-78
2021/05/07 13:45:42;;;;;;;1.52;1.30;;;;;;;;;;5051010;28;20029;-78
2021/05/07 13:48:09;;;;;;;2.92;1.65;;;;;;;;;;5050538;28;20533;-78
2021/05/07 13:50:35;;;;;;;1.60;1.30;;;;;;;;;;5050853;28;20044;-78
2021/05/07 13:53:01;;;;;;;2.35;1.70;;;;;;;;;;5051246;28;20395;-77
2021/05/07 13:55:27;;;;;;;2.25;1.20;;;;;;;;;;5050500;28;20025;-78
2021/05/07 13:57:53;;;;;;;2.35;1.48;;;;;;;;;;5050582;28;20041;-78
2021/05/07 14:00:19;;;;;;;2.05;1.25;;;;;;;;;;5050080;28;20040;-77
2021/05/07 14:02:45;;;;;;;1.95;1.85;;;;;;;;;;5050347;28;20025;-78
2021/05/07 14:05:11;;;;;;;3.10;1.52;;;;;;;;;;5049895;28;20021;-77
2021/05/07 14:07:38;;;;;;;3.80;1.83;;;;;;;;;;5049939;28;20040;-78
2021/05/07 14:10:07;;;;;;;3.03;1.35;;;;;;;;;;5050796;28;20029;-79
2021/05/07 14:12:34;;;;;;;3.75;1.70;;;;;;;;;;5031903;28;20495;-78
2021/05/07 14:15:00;;;;;;;3.72;1.42;;;;;;;;;;5030645;28;20032;-78
2021/05/07 14:17:27;;;;;;;6.22;2.28;;;;;;;;;;5046269;28;20549;-78
2021/05/07 14:19:53;;;;;;;2.90;1.60;;;;;;;;;;5049814;28;20104;-78
2021/05/07 14:22:19;;;;;;;1.52;1.42;;;;;;;;;;5049285;28;20131;-78
2021/05/07 14:24:45;;;;;;;4.55;2.10;;;;;;;;;;5052649;28;20020;-77
2021/05/07 14:27:11;;;;;;;2.70;1.73;;;;;;;;;;5047927;28;20088;-78
2021/05/07 14:29:37;;;;;;;2.83;1.25;;;;;;;;;;5048817;28;20028;-79
2021/05/07 14:32:04;;;;;;;1.65;1.27;;;;;;;;;;5049335;28;20542;-78
2021/05/07 14:34:30;;;;;;;2.80;1.48;;;;;;;;;;5048604;28;20118;-78
2021/05/07 14:36:56;;;;;;;0.90;0.90;;;;;;;;;;5047766;28;20025;-78
2021/05/07 14:39:22;;;;;;;4.32;1.67;;;;;;;;;;5048616;28;20454;-78
2021/05/07 14:41:49;;;;;;;5.07;1.70;;;;;;;;;;5049828;28;20495;-80
2021/05/07 14:44:15;;;;;;;4.35;2.22;;;;;;;;;;5048612;28;20496;-80